Terminal Aerodrome Forecast
Issued by NWS Cleveland, OH

Home | Current Version | Previous Version | Text Only | Print | Product List | Glossary Off
Versions: 1 2 3 4 5 6 7 8 9 10 11 12 13 14 15

000
FTUS41 KCLE 281100
TAFTOL
TAF
KTOL 281135Z 2812/2912 21012KT P6SM BKN060 OVC120 WS020/22045KT
     FM281300 23015G25KT 5SM SHRA VCTS OVC040CB
      TEMPO 2813/2816 3SM -TSRA OVC020CB
     FM281700 27015G25KT P6SM -SHRA OVC025
     FM282200 27008KT P6SM BKN035=

USA.gov is the U.S. government's official web portal to all federal, state and local government web resources and services.